Time;durP1;ratioP1;P1;durP2;ratioP2;P2;SDS_P1;SDS_P2;PMS_P1;PMS_P2;Temp;Humidity;BMP_temperature;BMP_pressure;BME280_temperature;BME280_humidity;BME280_pressure;Samples;Min_cycle;Max_cycle;Signal;HPM_P1;HPM_P2
2023/09/22 00:00:14;;;;;;;0.30;0.30;;;;;;;22.43;52.03;98911.06;4516406;28;20033;-64
2023/09/22 00:02:25;;;;;;;0.38;0.30;;;;;;;22.42;52.39;98903.69;4514960;28;20044;-64
2023/09/22 00:04:37;;;;;;;0.57;0.30;;;;;;;22.41;52.48;98902.03;4500698;28;20088;-64
2023/09/22 00:06:47;;;;;;;0.30;0.30;;;;;;;22.42;52.24;98909.44;4499691;28;20057;-64
2023/09/22 00:08:57;;;;;;;0.90;0.30;;;;;;;22.41;52.13;98902.88;4514321;28;20121;-64
2023/09/22 00:11:08;;;;;;;0.47;0.38;;;;;;;22.37;52.42;98895.50;4514912;28;20935;-64
2023/09/22 00:13:18;;;;;;;0.30;0.30;;;;;;;22.41;52.37;98907.78;4515567;28;20029;-65
2023/09/22 00:15:29;;;;;;;0.20;0.20;;;;;;;22.41;52.20;98908.63;4515248;28;20050;-65
2023/09/22 00:17:39;;;;;;;0.40;0.30;;;;;;;22.41;51.96;98907.78;4514706;28;20049;-65
2023/09/22 00:19:49;;;;;;;0.55;0.40;;;;;;;22.41;52.16;98908.63;4514532;28;20065;-64
2023/09/22 00:22:00;;;;;;;0.30;0.30;;;;;;;22.38;51.96;98909.47;4514497;28;20062;-64
2023/09/22 00:24:10;;;;;;;0.20;0.20;;;;;;;22.38;52.23;98909.47;4502014;28;20037;-66
2023/09/22 00:26:21;;;;;;;0.20;0.20;;;;;;;22.41;52.52;98908.63;4503213;28;20083;-64
2023/09/22 00:28:31;;;;;;;0.45;0.30;;;;;;;22.42;52.17;98909.44;4512603;28;20037;-64
2023/09/22 00:30:41;;;;;;;0.32;0.30;;;;;;;22.41;52.53;98907.78;4499004;28;20053;-64
2023/09/22 00:32:52;;;;;;;0.30;0.30;;;;;;;22.40;52.29;98911.91;4515308;28;20403;-66
2023/09/22 00:35:05;;;;;;;0.20;0.20;;;;;;;22.39;52.32;98910.28;4513805;28;20651;-64
2023/09/22 00:37:15;;;;;;;0.45;0.20;;;;;;;22.39;52.49;98907.41;4500252;28;20045;-64
2023/09/22 00:39:26;;;;;;;0.57;0.22;;;;;;;22.36;52.43;98914.00;4502517;28;20045;-66
2023/09/22 00:41:36;;;;;;;0.40;0.30;;;;;;;22.40;52.29;98932.03;4513259;28;20359;-64
2023/09/22 00:43:47;;;;;;;0.20;0.20;;;;;;;22.40;51.92;98935.75;4499221;28;20060;-64
2023/09/22 00:45:58;;;;;;;0.20;0.20;;;;;;;22.38;52.42;98934.50;4513478;28;20395;-64
2023/09/22 00:48:09;;;;;;;0.30;0.30;;;;;;;22.38;52.20;98938.22;4515825;28;20133;-64
2023/09/22 00:50:20;;;;;;;0.43;0.30;;;;;;;22.36;52.06;98934.13;4496988;28;20917;-64
2023/09/22 00:52:30;;;;;;;0.20;0.20;;;;;;;22.41;52.25;98945.16;4496677;28;20080;-64
2023/09/22 00:54:41;;;;;;;0.20;0.20;;;;;;;22.28;52.37;98918.16;4500054;28;20054;-64
2023/09/22 00:56:53;;;;;;;0.20;0.20;;;;;;;22.41;51.93;98945.16;4505434;28;20527;-64
2023/09/22 00:59:05;;;;;;;0.22;0.22;;;;;;;22.39;52.11;98925.47;4501627;28;20116;-64
2023/09/22 01:01:18;;;;;;;0.52;0.30;;;;;;;22.35;52.07;98904.56;4512370;28;20041;-64
2023/09/22 01:03:30;;;;;;;0.28;0.25;;;;;;;22.39;51.78;98904.53;4514103;28;20581;-66
2023/09/22 01:05:40;;;;;;;0.43;0.40;;;;;;;22.38;51.72;98915.22;4513822;28;20026;-64
2023/09/22 01:07:51;;;;;;;0.35;0.25;;;;;;;22.36;51.51;98916.88;4515049;28;20447;-64
2023/09/22 01:10:09;;;;;;;0.20;0.20;;;;;;;22.39;52.02;98936.16;4513699;28;20069;-64
2023/09/22 01:12:20;;;;;;;0.30;0.20;;;;;;;22.37;51.85;98930.84;4496269;28;20041;-64
2023/09/22 01:14:31;;;;;;;0.60;0.35;;;;;;;22.39;51.72;98939.03;4514080;28;20022;-64
2023/09/22 01:16:42;;;;;;;1.17;0.30;;;;;;;22.37;51.54;98936.59;4513023;28;20041;-64
2023/09/22 01:18:52;;;;;;;0.40;0.25;;;;;;;22.31;51.88;98937.44;4495132;28;20100;-65
2023/09/22 01:21:03;;;;;;;0.20;0.20;;;;;;;22.34;51.67;98942.34;4513811;28;20033;-64
2023/09/22 01:23:14;;;;;;;0.40;0.30;;;;;;;22.39;51.86;98942.72;4505568;28;20101;-65
2023/09/22 01:25:24;;;;;;;0.20;0.20;;;;;;;22.37;51.86;98948.09;4513549;28;20033;-64
2023/09/22 01:27:35;;;;;;;0.40;0.40;;;;;;;22.37;52.29;98939.47;4488931;28;20041;-64
2023/09/22 01:29:45;;;;;;;0.20;0.20;;;;;;;22.36;52.42;98937.81;4504650;28;20465;-64
2023/09/22 01:31:56;;;;;;;0.22;0.22;;;;;;;22.37;52.08;98950.13;4513277;28;20037;-64
2023/09/22 01:34:08;;;;;;;1.40;0.43;;;;;;;22.37;52.33;98953.00;4496761;28;20038;-64
2023/09/22 01:36:18;;;;;;;0.30;0.30;;;;;;;22.35;52.06;98952.59;4513500;28;20912;-64
2023/09/22 01:38:29;;;;;;;0.40;0.30;;;;;;;22.37;52.16;98958.75;4512946;28;20091;-65
2023/09/22 01:40:41;;;;;;;0.75;0.20;;;;;;;22.38;52.26;98954.63;4513427;28;20489;-64
2023/09/22 01:42:51;;;;;;;0.25;0.22;;;;;;;22.37;51.78;98970.25;4514350;28;21396;-64
2023/09/22 01:45:02;;;;;;;0.30;0.30;;;;;;;22.37;51.83;98976.00;4512941;28;20039;-64
2023/09/22 01:47:13;;;;;;;0.40;0.30;;;;;;;22.35;51.87;98973.56;4506790;28;20846;-65
2023/09/22 01:49:23;;;;;;;0.28;0.28;;;;;;;22.35;51.89;98970.69;4504758;28;20085;-64
2023/09/22 01:51:33;;;;;;;0.50;0.40;;;;;;;22.33;51.98;98975.19;4500294;28;20462;-64
2023/09/22 01:53:45;;;;;;;0.30;0.20;;;;;;;22.32;51.27;98974.38;4512383;28;20036;-64
2023/09/22 01:55:56;;;;;;;0.68;0.20;;;;;;;22.33;51.72;98986.69;4496426;28;20105;-64
2023/09/22 01:58:08;;;;;;;0.50;0.30;;;;;;;22.37;51.44;98993.25;4504930;28;20037;-65
2023/09/22 02:00:18;;;;;;;0.47;0.30;;;;;;;22.35;51.30;98989.97;4497056;28;20044;-64
2023/09/22 02:02:30;;;;;;;0.20;0.20;;;;;;;22.32;50.93;98970.69;4512825;28;20045;-64
2023/09/22 02:04:40;;;;;;;0.93;0.28;;;;;;;22.33;50.97;98970.25;4504820;28;20598;-64
2023/09/22 02:06:51;;;;;;;0.20;0.20;;;;;;;22.19;50.88;98933.81;4504670;28;20045;-64
2023/09/22 02:09:03;;;;;;;0.30;0.30;;;;;;;22.32;50.95;98962.06;4499498;28;20750;-65
2023/09/22 02:11:14;;;;;;;0.20;0.20;;;;;;;22.33;50.25;98960.81;4504310;28;20120;-64
2023/09/22 02:13:24;;;;;;;0.45;0.30;;;;;;;22.34;50.55;98957.56;4501039;28;20122;-64
2023/09/22 02:15:35;;;;;;;0.30;0.30;;;;;;;22.35;50.66;98964.09;4503773;28;20069;-64
2023/09/22 02:17:46;;;;;;;0.30;0.30;;;;;;;22.32;50.31;98960.00;4512495;28;20053;-64
2023/09/22 02:19:57;;;;;;;0.32;0.32;;;;;;;22.30;50.70;98953.84;4513139;28;20140;-64
2023/09/22 02:22:08;;;;;;;0.43;0.30;;;;;;;22.34;50.40;98976.84;4513296;28;20072;-64
2023/09/22 02:24:18;;;;;;;0.30;0.30;;;;;;;22.34;50.51;98991.22;4498856;28;20073;-64
2023/09/22 02:26:28;;;;;;;0.43;0.30;;;;;;;22.35;50.45;98995.72;4498918;28;20046;-64
2023/09/22 02:28:39;;;;;;;0.50;0.35;;;;;;;22.23;50.54;98981.81;4513838;28;20030;-64
2023/09/22 02:30:50;;;;;;;0.30;0.30;;;;;;;22.31;50.37;98989.19;4511993;28;20534;-64
2023/09/22 02:33:02;;;;;;;0.38;0.38;;;;;;;22.32;50.05;98985.06;4512968;28;20030;-64
2023/09/22 02:35:13;;;;;;;0.40;0.35;;;;;;;22.32;50.22;98979.31;4498404;28;20487;-64
2023/09/22 02:37:23;;;;;;;0.30;0.30;;;;;;;22.33;50.12;98978.06;4502212;28;20034;-64
2023/09/22 02:39:34;;;;;;;0.30;0.30;;;;;;;22.28;49.88;98976.44;4510946;28;20065;-64
2023/09/22 02:41:44;;;;;;;0.40;0.30;;;;;;;22.28;49.62;98967.03;4511631;28;20084;-64
2023/09/22 02:43:56;;;;;;;0.52;0.32;;;;;;;22.28;49.39;98967.03;4512587;28;20076;-64
2023/09/22 02:46:07;;;;;;;0.40;0.40;;;;;;;22.28;49.33;98972.78;4511768;28;20034;-64
2023/09/22 02:48:18;;;;;;;0.50;0.50;;;;;;;22.22;48.40;98960.88;4513298;28;20060;-64
2023/09/22 02:50:28;;;;;;;0.63;0.50;;;;;;;22.25;48.69;98956.38;4498079;28;20064;-64
2023/09/22 02:52:39;;;;;;;0.63;0.63;;;;;;;22.29;48.63;98963.72;4497614;28;20034;-64
2023/09/22 02:54:57;;;;;;;0.57;0.57;;;;;;;22.28;48.47;98978.53;4512017;28;20032;-64
2023/09/22 02:57:07;;;;;;;0.50;0.50;;;;;;;22.27;48.35;98976.88;4512559;28;20048;-64
2023/09/22 02:59:19;;;;;;;0.65;0.40;;;;;;;22.31;48.40;98980.56;4513173;28;20028;-65
2023/09/22 03:01:29;;;;;;;0.77;0.70;;;;;;;22.28;48.43;98979.31;4510328;28;20101;-64
2023/09/22 03:03:43;;;;;;;0.40;0.40;;;;;;;22.28;48.67;98984.28;4511784;28;20045;-64
2023/09/22 03:05:58;;;;;;;0.50;0.50;;;;;;;22.32;48.57;98996.56;4497103;28;20035;-64
2023/09/22 03:08:08;;;;;;;0.60;0.60;;;;;;;22.30;48.35;98991.22;4503644;28;20517;-64
2023/09/22 03:10:19;;;;;;;0.50;0.50;;;;;;;22.29;48.76;98988.78;4504064;28;20038;-64
2023/09/22 03:12:29;;;;;;;0.50;0.50;;;;;;;22.31;48.91;98989.19;4498446;28;20037;-64
2023/09/22 03:14:40;;;;;;;0.85;0.60;;;;;;;22.29;48.82;98985.91;4503860;28;20399;-64
2023/09/22 03:16:53;;;;;;;0.50;0.50;;;;;;;22.28;48.58;98987.16;4511698;28;20033;-64
2023/09/22 03:19:03;;;;;;;0.45;0.45;;;;;;;22.27;48.31;98976.88;4512472;28;20108;-64
2023/09/22 03:21:14;;;;;;;0.60;0.60;;;;;;;22.28;48.61;98985.06;4499778;28;20158;-64
2023/09/22 03:23:24;;;;;;;0.70;0.70;;;;;;;22.27;48.52;98988.34;4505126;28;20061;-65
2023/09/22 03:25:35;;;;;;;1.40;0.70;;;;;;;22.28;48.45;98987.16;4500050;28;20038;-64
2023/09/22 03:27:45;;;;;;;0.70;0.70;;;;;;;22.28;48.45;98999.44;4515182;28;20034;-64
2023/09/22 03:30:01;;;;;;;0.70;0.70;;;;;;;22.28;48.58;99010.13;4514210;28;20041;-64
2023/09/22 03:32:13;;;;;;;0.45;0.40;;;;;;;22.25;48.49;99010.97;4508488;28;20197;-64
2023/09/22 03:34:24;;;;;;;0.88;0.50;;;;;;;22.30;48.29;99022.00;4516089;28;20060;-64
2023/09/22 03:36:35;;;;;;;0.60;0.47;;;;;;;22.22;48.24;99021.22;4515366;28;20052;-64
2023/09/22 03:38:48;;;;;;;0.63;0.50;;;;;;;22.28;48.34;99031.06;4513233;28;20171;-65
2023/09/22 03:41:00;;;;;;;0.88;0.40;;;;;;;22.27;48.42;99028.59;4515657;28;20036;-65
2023/09/22 03:43:11;;;;;;;0.38;0.38;;;;;;;22.27;48.15;99035.19;4507849;28;20821;-64
2023/09/22 03:45:22;;;;;;;0.50;0.50;;;;;;;22.24;48.49;99033.13;4501385;28;20038;-64
2023/09/22 03:47:33;;;;;;;0.40;0.40;;;;;;;22.21;48.70;99031.91;4501954;28;20018;-66
2023/09/22 03:49:43;;;;;;;0.60;0.60;;;;;;;22.28;48.44;99041.75;4507132;28;20053;-64
2023/09/22 03:51:54;;;;;;;0.40;0.40;;;;;;;22.27;48.60;99040.09;4516275;28;20056;-64
2023/09/22 03:54:05;;;;;;;0.40;0.40;;;;;;;22.23;48.40;99033.56;4506527;28;20494;-64
2023/09/22 03:56:16;;;;;;;0.47;0.47;;;;;;;22.27;48.42;99040.09;4491950;28;20037;-64
2023/09/22 03:58:29;;;;;;;0.45;0.30;;;;;;;22.27;48.11;99040.09;4507177;28;20045;-64
2023/09/22 04:00:40;;;;;;;0.50;0.40;;;;;;;22.27;48.03;99034.34;4514941;28;20514;-65
2023/09/22 04:02:52;;;;;;;0.85;0.50;;;;;;;22.24;48.02;99013.03;4515470;28;20117;-64
2023/09/22 04:05:03;;;;;;;0.50;0.50;;;;;;;22.23;48.13;99004.81;4513492;28;20121;-64
2023/09/22 04:07:14;;;;;;;0.50;0.40;;;;;;;22.23;47.81;99006.44;4516786;28;20120;-64
2023/09/22 04:09:25;;;;;;;0.52;0.50;;;;;;;22.26;47.72;99019.19;4483143;28;20041;-65
2023/09/22 04:11:36;;;;;;;0.30;0.30;;;;;;;22.23;47.68;99029.44;4500507;28;20049;-64
2023/09/22 04:13:46;;;;;;;0.43;0.40;;;;;;;22.26;47.63;99038.47;4484077;28;20993;-65
2023/09/22 04:16:00;;;;;;;0.40;0.40;;;;;;;22.25;47.59;99048.34;4513479;28;20029;-65
2023/09/22 04:18:13;;;;;;;0.50;0.50;;;;;;;22.25;47.08;99068.47;4514966;28;20052;-64
2023/09/22 04:20:28;;;;;;;0.40;0.40;;;;;;;22.25;47.28;99071.34;4513795;28;20033;-64
2023/09/22 04:22:39;;;;;;;0.50;0.50;;;;;;;22.23;47.26;99062.28;4515326;28;20897;-64
2023/09/22 04:24:51;;;;;;;0.47;0.47;;;;;;;22.26;47.05;99068.03;4516284;28;20048;-64
2023/09/22 04:27:06;;;;;;;0.40;0.40;;;;;;;22.25;47.16;99059.84;4507791;28;20033;-65
2023/09/22 04:29:17;;;;;;;0.50;0.50;;;;;;;22.24;46.72;99047.50;4515034;28;20627;-65
2023/09/22 04:31:28;;;;;;;0.50;0.50;;;;;;;22.19;46.55;99043.00;4515275;28;20057;-65
2023/09/22 04:33:38;;;;;;;0.50;0.40;;;;;;;22.20;47.04;99040.94;4505263;28;20485;-64
2023/09/22 04:35:50;;;;;;;0.73;0.45;;;;;;;22.20;46.88;99036.00;4513615;28;20061;-65
2023/09/22 04:38:01;;;;;;;0.82;0.40;;;;;;;22.14;47.02;99025.34;4514752;28;20034;-64
2023/09/22 04:40:23;;;;;;;0.60;0.50;;;;;;;22.16;46.96;99035.22;4514425;28;20574;-64
2023/09/22 04:42:33;;;;;;;0.50;0.50;;;;;;;22.20;46.83;99047.50;4514477;28;20036;-64
2023/09/22 04:44:45;;;;;;;0.50;0.50;;;;;;;22.19;46.54;99050.81;4515021;28;20037;-71
2023/09/22 04:46:55;;;;;;;0.60;0.60;;;;;;;22.13;46.58;99053.28;4515309;28;20030;-64
2023/09/22 04:49:07;;;;;;;0.55;0.50;;;;;;;22.19;46.54;99059.44;4500601;28;20038;-64
2023/09/22 04:51:19;;;;;;;0.57;0.50;;;;;;;22.19;46.05;99059.44;4514913;28;20095;-64
2023/09/22 04:53:30;;;;;;;0.57;0.57;;;;;;;22.20;46.32;99059.00;4497588;28;20140;-64
2023/09/22 04:55:40;;;;;;;0.50;0.50;;;;;;;22.21;46.48;99051.22;4513566;28;20120;-65
2023/09/22 04:57:50;;;;;;;0.63;0.47;;;;;;;22.18;45.81;99044.22;4513494;28;20037;-65
2023/09/22 05:00:04;;;;;;;0.88;0.63;;;;;;;22.16;46.09;99040.97;4514605;28;20398;-64
2023/09/22 05:02:15;;;;;;;0.57;0.50;;;;;;;22.18;46.22;99049.97;4514076;28;20037;-64
2023/09/22 05:04:28;;;;;;;0.68;0.50;;;;;;;22.18;46.52;99058.59;4495317;28;20046;-64
2023/09/22 05:06:39;;;;;;;0.55;0.55;;;;;;;22.19;46.29;99056.56;4498849;28;20113;-65
2023/09/22 05:08:49;;;;;;;0.40;0.40;;;;;;;22.19;46.09;99040.13;4497744;28;20112;-65
2023/09/22 05:11:05;;;;;;;0.73;0.50;;;;;;;22.19;46.21;99051.63;4514572;28;20065;-64
2023/09/22 05:13:16;;;;;;;0.97;0.57;;;;;;;22.17;45.82;99059.84;4514380;28;20034;-65
2023/09/22 05:15:26;;;;;;;0.30;0.30;;;;;;;22.17;45.95;99062.72;4513445;28;21126;-64
2023/09/22 05:17:36;;;;;;;0.50;0.50;;;;;;;22.17;45.89;99077.09;4504307;28;20133;-64
2023/09/22 05:19:47;;;;;;;0.68;0.52;;;;;;;22.09;45.92;99055.34;4513227;28;20041;-64
2023/09/22 05:21:57;;;;;;;0.40;0.40;;;;;;;22.18;46.22;99064.34;4512995;28;20038;-65
2023/09/22 05:24:08;;;;;;;0.52;0.40;;;;;;;22.17;46.13;99071.34;4512425;28;20033;-64
2023/09/22 05:26:20;;;;;;;0.55;0.40;;;;;;;22.19;45.88;99068.88;4512584;28;20038;-64
2023/09/22 05:28:31;;;;;;;0.93;0.50;;;;;;;22.15;46.13;99091.03;4513124;28;20084;-64
2023/09/22 05:30:41;;;;;;;0.70;0.45;;;;;;;22.17;46.00;99099.25;4512503;28;20088;-64
2023/09/22 05:32:52;;;;;;;0.50;0.50;;;;;;;22.15;46.14;99108.28;4514340;28;20045;-64
2023/09/22 05:35:02;;;;;;;0.45;0.32;;;;;;;22.16;45.80;99107.06;4514772;28;20378;-64
2023/09/22 05:37:13;;;;;;;0.32;0.32;;;;;;;22.16;46.27;99120.59;4512877;28;20038;-65
2023/09/22 05:39:24;;;;;;;0.45;0.40;;;;;;;22.15;46.30;99122.66;4511464;28;20041;-64
2023/09/22 05:41:34;;;;;;;0.40;0.30;;;;;;;22.11;46.33;99101.75;4513064;28;20145;-64
2023/09/22 05:43:45;;;;;;;0.60;0.40;;;;;;;22.15;46.48;99111.16;4513104;28;20577;-64
2023/09/22 05:45:55;;;;;;;0.38;0.30;;;;;;;22.14;46.27;99106.66;4511583;28;20375;-65
2023/09/22 05:48:07;;;;;;;0.50;0.30;;;;;;;22.12;45.93;99112.00;4513824;28;20042;-65
2023/09/22 05:50:17;;;;;;;0.60;0.40;;;;;;;22.14;46.40;99123.91;4496905;28;20049;-64
2023/09/22 05:52:29;;;;;;;0.40;0.40;;;;;;;22.10;46.35;99117.31;4512127;28;20034;-65
2023/09/22 05:54:40;;;;;;;0.50;0.40;;;;;;;22.17;46.40;99148.09;4498417;28;20920;-65
2023/09/22 05:56:50;;;;;;;1.05;0.40;;;;;;;22.14;46.19;99146.88;4513559;28;20041;-65
2023/09/22 05:59:03;;;;;;;0.40;0.40;;;;;;;22.16;46.32;99155.91;4513422;28;20037;-65
2023/09/22 06:01:14;;;;;;;0.50;0.35;;;;;;;22.08;46.57;99142.78;4513002;28;20557;-64
2023/09/22 06:03:24;;;;;;;0.40;0.32;;;;;;;22.14;46.58;99149.75;4512915;28;20088;-65
2023/09/22 06:05:36;;;;;;;0.60;0.40;;;;;;;22.12;46.48;99143.59;4498290;28;20402;-64
2023/09/22 06:07:47;;;;;;;0.95;0.40;;;;;;;22.15;46.50;99147.72;4504983;28;20042;-64
2023/09/22 06:09:57;;;;;;;0.47;0.40;;;;;;;22.14;46.51;99149.75;4514661;28;20049;-64
2023/09/22 06:12:08;;;;;;;0.30;0.30;;;;;;;22.13;46.21;99151.00;4513054;28;20041;-65
2023/09/22 06:14:18;;;;;;;0.30;0.30;;;;;;;22.03;46.71;99134.59;4513255;28;20117;-64
2023/09/22 06:16:30;;;;;;;0.65;0.47;;;;;;;22.13;46.42;99141.56;4513675;28;20120;-64
2023/09/22 06:18:41;;;;;;;0.40;0.30;;;;;;;22.10;46.67;99140.31;4497913;28;20089;-64
2023/09/22 06:20:58;;;;;;;0.30;0.30;;;;;;;22.14;45.93;99125.94;4505479;28;20076;-65
2023/09/22 06:23:09;;;;;;;0.30;0.30;;;;;;;22.09;46.19;99120.59;4511059;28;21399;-64
2023/09/22 06:25:20;;;;;;;0.20;0.20;;;;;;;22.13;46.13;99122.25;4512453;28;20061;-64
2023/09/22 06:27:32;;;;;;;0.30;0.30;;;;;;;22.13;46.35;99127.19;4497036;28;20088;-64
2023/09/22 06:29:43;;;;;;;0.90;0.30;;;;;;;22.12;46.42;99131.28;4512502;28;20041;-64
2023/09/22 06:31:53;;;;;;;0.30;0.20;;;;;;;22.09;46.33;99121.44;4494833;28;20121;-64
2023/09/22 06:34:05;;;;;;;0.32;0.32;;;;;;;22.08;46.30;99116.94;4496860;28;20169;-64
2023/09/22 06:36:17;;;;;;;0.30;0.30;;;;;;;22.10;46.20;99123.06;4511929;28;20490;-64
2023/09/22 06:38:28;;;;;;;0.70;0.50;;;;;;;22.06;46.62;99116.53;4513780;28;20030;-64
2023/09/22 06:40:39;;;;;;;1.15;0.35;;;;;;;22.12;46.47;99119.78;4494415;28;20137;-64
2023/09/22 06:42:49;;;;;;;0.47;0.40;;;;;;;22.12;46.82;99120.59;4478792;28;20034;-64
2023/09/22 06:45:00;;;;;;;0.32;0.32;;;;;;;22.08;46.70;99122.69;4511059;28;20449;-64
2023/09/22 06:47:10;;;;;;;0.32;0.30;;;;;;;22.12;46.34;99140.72;4497503;28;20133;-64
2023/09/22 06:49:24;;;;;;;0.80;0.50;;;;;;;22.09;46.79;99150.16;4497391;28;20037;-64
2023/09/22 06:51:36;;;;;;;0.35;0.30;;;;;;;22.12;46.67;99149.34;4511711;28;20111;-64
2023/09/22 06:53:47;;;;;;;0.30;0.22;;;;;;;22.14;46.71;99129.66;4503587;28;20888;-64
2023/09/22 06:56:06;;;;;;;0.40;0.30;;;;;;;22.15;46.87;99130.47;4504091;28;20100;-64
2023/09/22 06:58:16;;;;;;;0.60;0.30;;;;;;;22.13;46.92;99142.38;4515806;28;20087;-65
2023/09/22 07:00:29;;;;;;;0.75;0.40;;;;;;;22.08;47.55;99134.19;4515369;28;20038;-65
2023/09/22 07:02:40;;;;;;;0.50;0.40;;;;;;;22.10;47.54;99133.75;4515240;28;20053;-64
2023/09/22 07:04:50;;;;;;;0.65;0.30;;;;;;;22.14;47.84;99157.56;4516740;28;20022;-64
2023/09/22 07:07:02;;;;;;;0.63;0.50;;;;;;;22.09;47.91;99143.59;4515458;28;20037;-64
2023/09/22 07:09:13;;;;;;;0.30;0.25;;;;;;;22.12;47.62;99155.09;4514295;28;20041;-64
2023/09/22 07:11:24;;;;;;;0.28;0.28;;;;;;;22.10;48.17;99156.75;4516725;28;20116;-65
2023/09/22 07:13:35;;;;;;;0.30;0.20;;;;;;;22.05;48.14;99154.28;4515612;28;20030;-64
2023/09/22 07:15:53;;;;;;;0.50;0.30;;;;;;;22.13;47.91;99176.88;4514406;28;20080;-64
2023/09/22 07:18:05;;;;;;;0.55;0.38;;;;;;;22.12;47.55;99165.75;4515278;28;20598;-65
2023/09/22 07:20:15;;;;;;;0.60;0.30;;;;;;;22.13;48.01;99174.00;4516767;28;20037;-65
2023/09/22 07:22:26;;;;;;;0.20;0.20;;;;;;;22.10;47.88;99186.28;4515386;28;20086;-65
2023/09/22 07:24:36;;;;;;;0.50;0.30;;;;;;;22.11;47.62;99187.13;4515012;28;20042;-64
2023/09/22 07:26:46;;;;;;;0.30;0.30;;;;;;;22.11;47.51;99199.44;4514565;28;20041;-64
2023/09/22 07:28:58;;;;;;;0.35;0.30;;;;;;;22.05;48.14;99206.00;4513713;28;20490;-64
2023/09/22 07:31:11;;;;;;;0.28;0.20;;;;;;;22.12;47.94;99244.19;4515155;28;20200;-65
2023/09/22 07:33:24;;;;;;;0.30;0.30;;;;;;;22.09;47.99;99247.88;4515127;28;20041;-65
2023/09/22 07:35:34;;;;;;;0.50;0.35;;;;;;;22.09;48.04;99236.38;4498855;28;20089;-65
2023/09/22 07:37:45;;;;;;;0.35;0.30;;;;;;;22.10;47.91;99238.00;4514250;28;20038;-63
2023/09/22 07:39:55;;;;;;;0.30;0.30;;;;;;;22.09;47.96;99230.63;4515200;28;20036;-64
2023/09/22 07:42:07;;;;;;;0.40;0.30;;;;;;;22.11;48.39;99230.22;4515554;28;20026;-63
2023/09/22 07:44:21;;;;;;;0.40;0.20;;;;;;;22.10;48.33;99226.50;4513523;28;20072;-64
2023/09/22 07:46:32;;;;;;;0.30;0.30;;;;;;;22.11;48.10;99227.34;4514908;28;20049;-63
2023/09/22 07:48:42;;;;;;;0.20;0.20;;;;;;;22.16;48.15;99238.44;4514550;28;20406;-64
2023/09/22 07:50:53;;;;;;;0.82;0.25;;;;;;;22.13;48.01;99231.47;4513810;28;20052;-64
2023/09/22 07:53:04;;;;;;;0.47;0.20;;;;;;;22.12;47.34;99232.69;4514040;28;20033;-65
2023/09/22 07:55:14;;;;;;;0.55;0.30;;;;;;;22.13;47.77;99242.13;4513448;28;20041;-65
2023/09/22 07:57:25;;;;;;;0.25;0.22;;;;;;;22.15;47.73;99233.94;4514436;28;20126;-64
2023/09/22 07:59:35;;;;;;;0.57;0.30;;;;;;;22.14;48.08;99238.84;4506832;28;20165;-65
2023/09/22 08:01:46;;;;;;;0.32;0.20;;;;;;;22.10;47.83;99215.03;4496822;28;20124;-65
2023/09/22 08:03:56;;;;;;;0.35;0.30;;;;;;;22.13;47.40;99225.72;4512639;28;20629;-65
2023/09/22 08:06:07;;;;;;;0.88;0.52;;;;;;;22.14;47.22;99218.72;4514584;28;20037;-65
2023/09/22 08:08:17;;;;;;;0.20;0.20;;;;;;;22.12;47.43;99215.44;4514112;28;20399;-65
2023/09/22 08:10:29;;;;;;;0.20;0.20;;;;;;;22.15;47.55;99222.44;4514756;28;20041;-66
2023/09/22 08:12:43;;;;;;;0.30;0.30;;;;;;;22.12;47.76;99224.06;4513611;28;20049;-65
2023/09/22 08:14:54;;;;;;;0.20;0.20;;;;;;;22.06;47.35;99202.72;4515595;28;20025;-65
2023/09/22 08:17:07;;;;;;;0.45;0.30;;;;;;;22.14;47.77;99230.22;4514531;28;20034;-65
2023/09/22 08:19:18;;;;;;;0.60;0.30;;;;;;;22.10;47.66;99226.50;4514445;28;20948;-65
2023/09/22 08:21:28;;;;;;;0.20;0.20;;;;;;;22.13;48.16;99219.97;4515516;28;20120;-65
2023/09/22 08:23:40;;;;;;;0.20;0.20;;;;;;;22.10;47.51;99229.38;4513508;28;20518;-65
2023/09/22 08:25:56;;;;;;;0.65;0.38;;;;;;;22.14;48.63;99235.97;4513171;28;20539;-64
2023/09/22 08:28:06;;;;;;;0.27;0.23;;;;;;;22.12;48.17;99228.97;4514586;28;20870;-65
2023/09/22 08:30:16;;;;;;;0.55;0.40;;;;;;;22.06;47.97;99228.56;4513629;28;20339;-64
2023/09/22 08:32:27;;;;;;;0.70;0.30;;;;;;;22.13;48.23;99237.22;4501890;28;20076;-64
2023/09/22 08:34:40;;;;;;;0.38;0.38;;;;;;;22.14;48.01;99238.84;4498352;28;20070;-64
2023/09/22 08:36:50;;;;;;;0.50;0.28;;;;;;;22.10;48.11;99234.34;4514865;28;20033;-68
2023/09/22 08:39:01;;;;;;;0.70;0.30;;;;;;;22.13;48.14;99240.09;4499060;28;20046;-65
2023/09/22 08:41:12;;;;;;;0.30;0.30;;;;;;;22.15;47.96;99248.31;4500991;28;20133;-65
2023/09/22 08:43:23;;;;;;;0.20;0.20;;;;;;;22.12;48.09;99246.22;4513200;28;20026;-65
2023/09/22 08:45:35;;;;;;;0.30;0.22;;;;;;;22.13;48.11;99251.59;4512953;28;20041;-65
2023/09/22 08:47:47;;;;;;;0.20;0.20;;;;;;;22.10;47.61;99248.72;4513557;28;20041;-65
2023/09/22 08:49:57;;;;;;;0.30;0.30;;;;;;;22.09;47.99;99236.38;4513254;28;20124;-65
2023/09/22 08:52:08;;;;;;;0.20;0.20;;;;;;;22.13;48.09;99248.72;4499436;28;20120;-65
2023/09/22 08:54:19;;;;;;;0.40;0.20;;;;;;;22.13;47.56;99240.09;4512845;28;20037;-65
2023/09/22 08:56:30;;;;;;;0.25;0.20;;;;;;;22.14;48.13;99238.00;4512968;28;20969;-65
2023/09/22 08:58:40;;;;;;;0.20;0.20;;;;;;;22.08;48.72;99223.25;4513887;28;20033;-65
2023/09/22 09:00:54;;;;;;;0.20;0.20;;;;;;;22.18;47.88;99238.84;4513710;28;20065;-65
2023/09/22 09:03:09;;;;;;;0.30;0.30;;;;;;;22.17;47.90;99232.28;4513091;28;20793;-65
2023/09/22 09:05:21;;;;;;;0.32;0.20;;;;;;;22.17;48.09;99234.31;4513374;28;20034;-65
2023/09/22 09:07:32;;;;;;;0.60;0.35;;;;;;;22.17;48.19;99237.19;4513409;28;20049;-69
2023/09/22 09:09:44;;;;;;;0.30;0.30;;;;;;;22.17;48.33;99231.44;4499419;28;21503;-66
2023/09/22 09:11:59;;;;;;;0.40;0.20;;;;;;;22.16;47.32;99230.66;4496540;28;20117;-65
2023/09/22 09:14:23;;;;;;;0.30;0.30;;;;;;;22.16;47.74;99218.31;4513739;28;20147;-65
2023/09/22 09:16:34;;;;;;;0.28;0.28;;;;;;;22.12;46.96;99209.69;4513988;28;20083;-65
2023/09/22 09:18:44;;;;;;;0.98;0.30;;;;;;;22.17;47.26;99212.16;4498956;28;20134;-66
2023/09/22 09:21:14;;;;;;;0.30;0.20;;;;;;;22.19;47.53;99212.56;4514136;28;20038;-65
2023/09/22 09:23:25;;;;;;;0.43;0.30;;;;;;;22.17;47.78;99215.03;4498071;28;20130;-65
2023/09/22 09:25:43;;;;;;;0.50;0.30;;;;;;;22.14;48.05;99212.97;4512976;28;20509;-65
2023/09/22 09:28:03;;;;;;;0.20;0.20;;;;;;;22.17;47.96;99214.19;4512833;28;20053;-65
2023/09/22 09:30:15;;;;;;;0.47;0.20;;;;;;;22.14;47.97;99227.34;4482144;28;20050;-65
2023/09/22 09:32:26;;;;;;;0.47;0.20;;;;;;;22.19;47.80;99235.56;4484711;28;20046;-65
2023/09/22 09:34:39;;;;;;;0.20;0.20;;;;;;;22.20;47.63;99228.56;4513548;28;20041;-65
2023/09/22 09:37:09;;;;;;;0.40;0.30;;;;;;;22.20;48.00;99228.56;4505987;28;20080;-64
2023/09/22 09:39:51;;;;;;;0.52;0.20;;;;;;;22.18;48.60;99222.41;4514280;28;20079;-65
2023/09/22 09:42:02;;;;;;;0.30;0.30;;;;;;;22.19;49.38;99229.00;4513346;28;20069;-64
2023/09/22 09:44:13;;;;;;;0.75;0.20;;;;;;;22.19;49.19;99235.56;4513454;28;20113;-65
2023/09/22 09:46:26;;;;;;;0.47;0.30;;;;;;;22.20;48.23;99237.19;4513481;28;20041;-64
2023/09/22 09:48:39;;;;;;;0.30;0.20;;;;;;;22.18;48.24;99222.41;4513955;28;20029;-66
2023/09/22 09:50:59;;;;;;;0.50;0.20;;;;;;;22.20;47.80;99222.81;4513963;28;20053;-64
2023/09/22 09:53:17;;;;;;;0.30;0.30;;;;;;;22.19;48.32;99229.81;4512791;28;20087;-64
2023/09/22 09:55:28;;;;;;;0.50;0.38;;;;;;;22.14;49.15;99204.38;4511519;28;20034;-64
2023/09/22 09:57:42;;;;;;;0.20;0.20;;;;;;;22.18;48.69;99222.41;4512756;28;20037;-64
2023/09/22 09:59:53;;;;;;;0.47;0.30;;;;;;;22.18;48.59;99228.16;4513538;28;20041;-65
2023/09/22 10:02:04;;;;;;;0.30;0.20;;;;;;;22.16;48.79;99224.91;4512346;28;20051;-65
2023/09/22 10:04:20;;;;;;;0.28;0.28;;;;;;;22.22;47.84;99231.03;4511342;28;20260;-64
2023/09/22 10:06:32;;;;;;;0.28;0.28;;;;;;;22.17;47.35;99225.69;4512851;28;20518;-64
2023/09/22 10:08:42;;;;;;;0.30;0.20;;;;;;;22.19;47.12;99229.81;4503553;28;20870;-65
2023/09/22 10:10:58;;;;;;;0.20;0.20;;;;;;;22.17;46.95;99235.16;4511202;28;20041;-65
2023/09/22 10:13:24;;;;;;;0.30;0.30;;;;;;;22.18;46.61;99236.78;4512615;28;20042;-64
2023/09/22 10:15:57;;;;;;;0.20;0.20;;;;;;;22.21;46.50;99247.44;4496958;28;20835;-65
2023/09/22 10:18:07;;;;;;;0.43;0.30;;;;;;;22.20;46.37;99242.94;4510998;28;20091;-65
2023/09/22 10:20:45;;;;;;;0.95;0.20;;;;;;;22.23;46.90;99244.19;4513007;28;20092;-65